Peru, VT (05152)

6:01 AM EST on January 31, 2015 (GMT -0500)
half way up Stratton Mountain | Change Station
CLOSE
Current Station
Personal Weather Station
Location: Bondville, VT
Elevation: 2550 ft
Nearby Weather Stations

Elev 2550 ft 43.11 °N, 72.92 °W | Updated 1 minute ago

Mostly Cloudy
Mostly Cloudy
-6.8 °F
Feels Like -28 °F
N
15.0
Wind Variable Wind from WNW
Gusts 29.0 mph

Today
High -- | Low -- °F
--% Chance of Precip.
Yesterday
High -- | Low -- °F
Precip. -- in
7:08 AM 5:02 PM
Waxing Gibbous, 89% visible
Pressure 30.11 in
Visibility 10.0 miles
Clouds Clear
Windchill -28 °F
Dew Point -10 °F
Humidity 84%
Rainfall 0.00 in
Snow Depth Not available.
UV 0 out of 12
Pollen .10 out of 12
Air Quality Not available.
Flu Activity Not available.
METAR KDDH 311054Z AUTO 32004KT 10SM CLR M18/M24 A3006 RMK AO2 SLP196 T11831239

More Conditions Fewer Conditions

Pressure 30.11 in
Visibility 10.0 miles
Clouds Clear
Windchill -28 °F
Dew Point -10 °F
Humidity 84%
Rainfall 0.00 in
Snow Depth Not available.
UV 0 out of 12
Pollen .10 out of 12
Air Quality Not available.
Flu Activity Not available.
METAR KDDH 311054Z AUTO 32004KT 10SM CLR M18/M24 A3006 RMK AO2 SLP196 T11831239

More Conditions Fewer Conditions

10-Day Weather Forecast

Almanac

Astronomy

Jan. 31, 2015 Rise Set
Actual Time
Civil Twilight
Nautical Twilight
Astronomical Twilight
Moon
Length of Visible Light
Length of Day
Tomorrow will be .
, % of the Moon is Illuminated

Today's Extremes

State Highs State Lows

Community

WunderPhotos

Upload Photos

1,792,031 photos uploaded!

WunderBlogs® & News

Nearby

Air Quality

  Air Quality AQ Index Pollutant
Not available.

Snow Depth

Station Depth Elevation

Earthquake Activity

City Distance Mag. Time & Date
Minimum magnitude displayed is 2.5.

Coastal Water Temperatures

Place Temperature

Nearby Weather Stations